createdAt,value
2018-02-22T00:00:24.629Z,-1.00
2018-02-22T00:02:52.144Z,-1.00
2018-02-22T00:05:19.656Z,-1.10
2018-02-22T00:07:47.193Z,-1.10
2018-02-22T00:10:14.698Z,-1.10
2018-02-22T00:12:42.222Z,-1.20
2018-02-22T00:15:09.748Z,-1.30
2018-02-22T00:17:37.268Z,-1.40
2018-02-22T00:20:04.834Z,-1.40
2018-02-22T00:22:32.357Z,-1.50
2018-02-22T00:24:59.863Z,-1.50
2018-02-22T00:27:28.209Z,-1.40
2018-02-22T00:29:55.718Z,-1.50
2018-02-22T00:32:24.027Z,-1.30
2018-02-22T00:34:51.592Z,-1.30
2018-02-22T00:37:19.861Z,-1.20
2018-02-22T00:39:47.388Z,-1.20
2018-02-22T00:42:14.890Z,-1.30
2018-02-22T00:44:42.415Z,-1.30
2018-02-22T00:47:09.922Z,-1.30
2018-02-22T00:49:37.447Z,-1.40
2018-02-22T00:52:05.014Z,-1.40
2018-02-22T00:54:32.537Z,-1.50
2018-02-22T00:57:00.054Z,-1.60
2018-02-22T00:59:27.594Z,-1.60
2018-02-22T01:01:55.913Z,-1.60
2018-02-22T01:04:24.209Z,-1.50
2018-02-22T01:06:51.709Z,-1.60
2018-02-22T01:09:19.238Z,-1.50
2018-02-22T01:11:47.637Z,-1.60
2018-02-22T01:14:15.910Z,-1.60
2018-02-22T01:16:44.213Z,-1.60
2018-02-22T01:19:12.489Z,-1.50
2018-02-22T01:21:40.790Z,-1.60
2018-02-22T01:24:09.057Z,-1.60
2018-02-22T01:26:36.572Z,-1.60
2018-02-22T01:29:04.126Z,-1.60
2018-02-22T01:31:32.409Z,-1.60
2018-02-22T01:34:00.701Z,-1.70
2018-02-22T01:36:28.997Z,-1.60
2018-02-22T01:38:56.512Z,-1.60
2018-02-22T01:41:24.033Z,-1.60
2018-02-22T01:43:52.302Z,-1.70
2018-02-22T01:46:19.897Z,-1.70
2018-02-22T01:48:48.180Z,-1.70
2018-02-22T01:51:16.454Z,-1.80
2018-02-22T01:53:43.981Z,-1.80
2018-02-22T01:56:11.490Z,-1.70
2018-02-22T01:58:39.090Z,-1.70
2018-02-22T02:01:06.598Z,-1.60
2018-02-22T02:03:34.119Z,-1.60
2018-02-22T02:06:02.425Z,-1.70
2018-02-22T02:08:30.712Z,-1.80
2018-02-22T02:10:58.212Z,-1.80
2018-02-22T02:13:25.729Z,-1.90
2018-02-22T02:15:53.317Z,-1.90
2018-02-22T02:18:21.597Z,-1.90
2018-02-22T02:20:49.097Z,-1.90
2018-02-22T02:23:16.621Z,-2.00
2018-02-22T02:25:44.124Z,-2.00
2018-02-22T02:28:12.514Z,-1.90
2018-02-22T02:30:40.776Z,-2.10
2018-02-22T02:33:09.104Z,-2.10
2018-02-22T02:35:36.668Z,-2.10
2018-02-22T02:38:04.972Z,-2.00
2018-02-22T02:40:32.526Z,-2.00
2018-02-22T02:43:00.807Z,-2.00
2018-02-22T02:45:29.105Z,-2.10
2018-02-22T02:47:57.388Z,-2.10
2018-02-22T02:50:25.674Z,-2.10
2018-02-22T02:52:53.945Z,-2.00
2018-02-22T02:55:21.471Z,-2.10
2018-02-22T02:57:48.969Z,-2.10
2018-02-22T03:00:16.518Z,-2.10
2018-02-22T03:02:44.021Z,-2.10
2018-02-22T03:05:11.622Z,-2.20
2018-02-22T03:07:39.888Z,-2.10
2018-02-22T03:10:07.493Z,-2.20
2018-02-22T03:12:35.782Z,-2.10
2018-02-22T03:15:04.174Z,-2.20
2018-02-22T03:17:32.444Z,-2.30
2018-02-22T03:19:59.984Z,-2.30
2018-02-22T03:22:27.607Z,-2.30
2018-02-22T03:24:55.897Z,-2.40
2018-02-22T03:27:24.175Z,-2.30
2018-02-22T03:29:51.678Z,-2.40
2018-02-22T03:32:19.190Z,-2.30
2018-02-22T03:34:46.699Z,-2.30
2018-02-22T03:37:14.987Z,-2.30
2018-02-22T03:39:43.277Z,-2.40
2018-02-22T03:42:10.799Z,-2.40
2018-02-22T03:44:38.320Z,-2.50
2018-02-22T03:47:06.709Z,-2.50
2018-02-22T03:49:34.976Z,-2.60
2018-02-22T03:52:02.514Z,-2.60
2018-02-22T03:54:30.048Z,-2.60
2018-02-22T03:56:58.329Z,-2.60
2018-02-22T03:59:26.617Z,-2.60
2018-02-22T04:01:54.880Z,-2.60
2018-02-22T04:04:22.397Z,-2.60
2018-02-22T04:06:50.052Z,-2.60
2018-02-22T04:09:18.750Z,-2.70
2018-02-22T04:11:47.020Z,-2.70
2018-02-22T04:14:14.534Z,-2.70
2018-02-22T04:16:42.041Z,-2.70
2018-02-22T04:19:09.562Z,-2.70
2018-02-22T04:21:37.065Z,-2.70
2018-02-22T04:24:04.598Z,-2.70
2018-02-22T04:26:32.866Z,-2.60
2018-02-22T04:29:00.394Z,-2.60
2018-02-22T04:31:27.926Z,-2.80
2018-02-22T04:33:56.217Z,-2.70
2018-02-22T04:36:24.614Z,-2.70
2018-02-22T04:38:52.881Z,-2.70
2018-02-22T04:41:20.396Z,-2.70
2018-02-22T04:43:47.905Z,-2.60
2018-02-22T04:46:15.513Z,-2.60
2018-02-22T04:48:43.899Z,-2.60
2018-02-22T04:51:12.185Z,-2.70
2018-02-22T04:53:40.585Z,-2.70
2018-02-22T04:56:08.868Z,-2.80
2018-02-22T04:58:37.136Z,-2.70
2018-02-22T05:01:04.655Z,-2.80
2018-02-22T05:03:32.161Z,-2.70
2018-02-22T05:05:59.685Z,-2.70
2018-02-22T05:08:27.245Z,-2.60
2018-02-22T05:10:55.548Z,-2.70
2018-02-22T05:13:23.043Z,-2.70
2018-02-22T05:15:50.576Z,-2.60
2018-02-22T05:18:18.866Z,-2.70
2018-02-22T05:20:47.132Z,-2.80
2018-02-22T05:23:14.646Z,-2.80
2018-02-22T05:25:42.153Z,-2.90
2018-02-22T05:28:09.665Z,-3.00
2018-02-22T05:30:37.931Z,-3.10
2018-02-22T05:33:05.446Z,-3.10
2018-02-22T05:35:32.952Z,-3.10
2018-02-22T05:38:00.473Z,-3.10
2018-02-22T05:40:28.770Z,-3.10
2018-02-22T05:42:56.369Z,-3.20
2018-02-22T05:45:23.923Z,-3.20
2018-02-22T05:47:51.416Z,-3.30
2018-02-22T05:50:18.933Z,-3.30
2018-02-22T05:52:46.438Z,-3.20
2018-02-22T05:55:14.012Z,-3.30
2018-02-22T05:57:41.565Z,-3.40
2018-02-22T06:00:09.841Z,-3.30
2018-02-22T06:02:38.161Z,-3.30
2018-02-22T06:05:05.717Z,-3.40
2018-02-22T06:07:33.985Z,-3.30
2018-02-22T06:10:01.505Z,-3.30
2018-02-22T06:12:29.017Z,-3.30
2018-02-22T06:14:57.313Z,-3.20
2018-02-22T06:17:24.813Z,-3.30
2018-02-22T06:19:53.098Z,-3.10
2018-02-22T06:22:21.387Z,-3.00
2018-02-22T06:24:49.645Z,-3.10
2018-02-22T06:27:17.172Z,-3.10
2018-02-22T06:29:44.673Z,-3.10
2018-02-22T06:32:12.185Z,-3.00
2018-02-22T06:34:40.449Z,-3.00
2018-02-22T06:37:08.049Z,-3.10
2018-02-22T06:39:36.310Z,-2.90
2018-02-22T06:42:03.839Z,-2.90
2018-02-22T06:44:31.386Z,-2.90
2018-02-22T06:46:58.954Z,-2.90
2018-02-22T06:49:27.221Z,-2.70
2018-02-22T06:51:54.812Z,-2.80
2018-02-22T06:54:23.104Z,-2.70
2018-02-22T06:56:51.360Z,-2.60
2018-02-22T06:59:18.883Z,-2.60
2018-02-22T07:01:46.446Z,-2.60
2018-02-22T07:04:14.729Z,-2.50
2018-02-22T07:06:42.989Z,-2.50
2018-02-22T07:09:10.590Z,-2.50
2018-02-22T07:11:38.858Z,-2.30
2018-02-22T07:14:06.390Z,-2.30
2018-02-22T07:16:33.909Z,-2.20
2018-02-22T07:19:02.245Z,-1.50
2018-02-22T07:21:29.832Z,-1.50
2018-02-22T07:23:57.351Z,-1.10
2018-02-22T07:26:25.764Z,-0.40
2018-02-22T07:28:54.044Z,-0.20
2018-02-22T07:31:21.540Z,-0.20
2018-02-22T07:33:49.061Z,0.10
2018-02-22T07:36:17.345Z,1.40
2018-02-22T07:38:44.872Z,1.40
2018-02-22T07:41:12.376Z,1.90
2018-02-22T07:43:39.868Z,2.20
2018-02-22T07:46:07.453Z,2.30
2018-02-22T07:48:35.715Z,3.10
2018-02-22T07:51:03.230Z,3.00
2018-02-22T07:53:30.735Z,3.30
2018-02-22T07:55:58.249Z,4.20
2018-02-22T07:58:26.513Z,3.80
2018-02-22T08:00:54.025Z,3.80
2018-02-22T08:03:21.525Z,3.60
2018-02-22T08:05:49.047Z,4.40
2018-02-22T08:08:17.305Z,5.20
2018-02-22T08:10:44.810Z,5.10
2018-02-22T08:13:13.082Z,7.10
2018-02-22T08:15:40.608Z,7.10
2018-02-22T08:18:08.097Z,7.00
2018-02-22T08:20:35.585Z,6.80
2018-02-22T08:23:03.283Z,7.70
2018-02-22T08:25:31.563Z,8.40
2018-02-22T08:27:59.077Z,8.40
2018-02-22T08:30:26.573Z,8.80
2018-02-22T08:32:54.085Z,8.40
2018-02-22T08:35:22.349Z,8.50
2018-02-22T08:37:49.862Z,8.50
2018-02-22T08:40:17.357Z,9.60
2018-02-22T08:42:45.166Z,10.10
2018-02-22T08:45:12.668Z,10.20
2018-02-22T08:47:40.950Z,9.20
2018-02-22T08:50:09.212Z,9.10
2018-02-22T08:52:36.729Z,9.10
2018-02-22T08:55:05.015Z,11.00
2018-02-22T08:57:33.297Z,10.90
2018-02-22T09:00:01.588Z,9.90
2018-02-22T09:02:29.870Z,10.80
2018-02-22T09:04:58.162Z,10.30
2018-02-22T09:07:26.422Z,10.50
2018-02-22T09:09:54.035Z,10.50
2018-02-22T09:12:21.718Z,9.70
2018-02-22T09:14:49.274Z,10.20
2018-02-22T09:17:17.534Z,10.80
2018-02-22T09:19:45.056Z,10.80
2018-02-22T09:22:12.553Z,10.40
2018-02-22T09:24:40.085Z,9.60
2018-02-22T09:27:08.349Z,10.50
2018-02-22T09:29:35.852Z,10.40
2018-02-22T09:32:03.404Z,9.90
2018-02-22T09:34:31.696Z,9.80
2018-02-22T09:36:59.979Z,10.60
2018-02-22T09:39:28.245Z,11.00
2018-02-22T09:41:55.770Z,11.00
2018-02-22T09:44:23.275Z,10.20
2018-02-22T09:46:50.784Z,9.30
2018-02-22T09:49:19.093Z,8.40
2018-02-22T09:51:46.649Z,8.40
2018-02-22T09:54:14.953Z,8.00
2018-02-22T09:56:42.457Z,8.00
2018-02-22T09:59:09.977Z,7.80
2018-02-22T10:01:38.248Z,6.40
2018-02-22T10:04:05.765Z,6.40
2018-02-22T10:06:33.258Z,6.20
2018-02-22T10:09:00.778Z,6.20
2018-02-22T10:11:29.034Z,6.20
2018-02-22T10:13:56.657Z,6.20
2018-02-22T10:16:24.160Z,5.70
2018-02-22T10:18:51.657Z,6.30
2018-02-22T10:21:19.182Z,6.30
2018-02-22T10:23:46.685Z,6.50
2018-02-22T10:26:14.197Z,6.60
2018-02-22T10:28:42.453Z,7.00
2018-02-22T10:31:10.053Z,7.00
2018-02-22T10:33:37.625Z,7.20
2018-02-22T10:36:05.901Z,6.20
2018-02-22T10:38:33.402Z,6.20
2018-02-22T10:41:00.915Z,6.00
2018-02-22T10:43:28.410Z,6.20
2018-02-22T10:45:56.002Z,6.30
2018-02-22T10:48:24.256Z,5.40
2018-02-22T10:50:51.770Z,5.40
2018-02-22T10:53:19.270Z,5.20
2018-02-22T10:55:46.793Z,4.90
2018-02-22T10:58:15.093Z,4.30
2018-02-22T11:00:48.966Z,4.30
2018-02-22T11:03:16.481Z,4.30
2018-02-22T11:05:44.745Z,3.80
2018-02-22T11:08:12.255Z,3.80
2018-02-22T11:10:39.753Z,4.00
2018-02-22T11:13:07.270Z,4.20
2018-02-22T11:15:34.765Z,4.40
2018-02-22T11:18:02.293Z,4.20
2018-02-22T11:20:29.829Z,4.20
2018-02-22T11:22:57.350Z,4.20
2018-02-22T11:25:24.843Z,4.00
2018-02-22T11:27:52.365Z,4.00
2018-02-22T11:30:19.869Z,3.90
2018-02-22T11:32:48.171Z,4.40
2018-02-22T11:35:16.444Z,4.70
2018-02-22T11:37:44.709Z,4.80
2018-02-22T11:40:12.224Z,4.70
2018-02-22T11:42:40.491Z,4.60
2018-02-22T11:45:08.790Z,4.60
2018-02-22T11:47:37.045Z,4.60
2018-02-22T11:50:04.565Z,4.50
2018-02-22T11:52:32.088Z,4.40
2018-02-22T11:54:59.642Z,4.50
2018-02-22T11:57:27.911Z,4.30
2018-02-22T11:59:55.477Z,4.30
2018-02-22T12:02:22.969Z,4.20
2018-02-22T12:04:50.494Z,4.40
2018-02-22T12:07:18.753Z,4.50
2018-02-22T12:09:46.261Z,4.50
2018-02-22T12:12:14.537Z,4.30
2018-02-22T12:14:42.808Z,4.10
2018-02-22T12:17:10.338Z,4.00
2018-02-22T12:19:37.830Z,4.10
2018-02-22T12:22:05.337Z,4.20
2018-02-22T12:24:33.601Z,4.30
2018-02-22T12:27:01.205Z,4.30
2018-02-22T12:29:29.467Z,4.20
2018-02-22T12:31:57.070Z,4.20
2018-02-22T12:34:25.360Z,4.30
2018-02-22T12:36:53.756Z,4.30
2018-02-22T12:39:22.021Z,4.40
2018-02-22T12:41:49.545Z,4.40
2018-02-22T12:44:17.044Z,4.30
2018-02-22T12:46:44.546Z,4.20
2018-02-22T12:49:12.833Z,4.40
2018-02-22T12:51:40.329Z,4.40
2018-02-22T12:54:07.837Z,4.40
2018-02-22T12:56:35.329Z,4.40
2018-02-22T12:59:02.848Z,4.50
2018-02-22T13:01:30.340Z,4.60
2018-02-22T13:03:57.857Z,4.40
2018-02-22T13:06:26.117Z,4.50
2018-02-22T13:08:53.639Z,4.50
2018-02-22T13:11:21.142Z,4.50
2018-02-22T13:13:48.649Z,4.60
2018-02-22T13:16:16.241Z,4.50
2018-02-22T13:18:44.500Z,4.50
2018-02-22T13:21:12.023Z,4.50
2018-02-22T13:23:39.529Z,4.60
2018-02-22T13:26:07.189Z,4.50
2018-02-22T13:28:34.705Z,4.50
2018-02-22T13:31:03.032Z,4.50
2018-02-22T13:33:43.057Z,4.30
2018-02-22T13:36:10.579Z,4.30
2018-02-22T13:38:50.030Z,4.20
2018-02-22T13:41:17.894Z,4.30
2018-02-22T13:43:45.398Z,4.30
2018-02-22T13:46:12.929Z,4.40
2018-02-22T13:48:52.438Z,4.40
2018-02-22T13:51:19.970Z,4.50
2018-02-22T13:53:47.498Z,4.40
2018-02-22T13:59:21.737Z,4.60
2018-02-22T14:02:02.441Z,4.70
2018-02-22T14:04:29.951Z,4.50
2018-02-22T14:06:57.505Z,4.30
2018-02-22T14:09:25.766Z,4.30
2018-02-22T14:11:53.401Z,4.30
2018-02-22T14:14:20.885Z,4.30
2018-02-22T14:16:48.386Z,4.20
2018-02-22T14:19:17.509Z,4.20
2018-02-22T14:21:45.806Z,4.40
2018-02-22T14:24:14.081Z,4.40
2018-02-22T14:26:42.350Z,4.40
2018-02-22T14:29:11.374Z,4.50
2018-02-22T14:31:39.640Z,4.40
2018-02-22T14:34:07.209Z,4.40
2018-02-22T14:36:34.713Z,4.40
2018-02-22T14:39:02.995Z,4.30
2018-02-22T14:41:31.266Z,4.20
2018-02-22T14:43:58.789Z,4.20
2018-02-22T14:46:26.284Z,4.10
2018-02-22T14:48:53.801Z,4.10
2018-02-22T14:51:22.078Z,4.30
2018-02-22T14:53:49.669Z,4.30
2018-02-22T14:56:17.965Z,4.30
2018-02-22T14:58:46.240Z,4.30
2018-02-22T15:01:13.756Z,4.30
2018-02-22T15:03:41.274Z,4.20
2018-02-22T15:06:08.810Z,4.10
2018-02-22T15:08:36.330Z,4.10
2018-02-22T15:11:04.621Z,4.10
2018-02-22T15:13:32.881Z,4.10
2018-02-22T15:16:00.392Z,4.00
2018-02-22T15:18:27.953Z,4.00
2018-02-22T15:20:56.229Z,4.00
2018-02-22T15:23:23.716Z,4.00
2018-02-22T15:25:59.152Z,4.00
2018-02-22T15:28:27.417Z,3.90
2018-02-22T15:30:54.951Z,3.90
2018-02-22T15:33:22.441Z,3.90
2018-02-22T15:35:49.945Z,3.90
2018-02-22T15:38:17.544Z,3.80
2018-02-22T15:40:45.805Z,3.90
2018-02-22T15:43:13.315Z,3.80
2018-02-22T15:45:40.813Z,3.80
2018-02-22T15:48:08.349Z,3.70
2018-02-22T15:50:36.610Z,3.70
2018-02-22T15:53:04.140Z,3.70
2018-02-22T15:55:31.678Z,3.60
2018-02-22T15:57:59.962Z,3.50
2018-02-22T16:00:28.222Z,3.40
2018-02-22T16:02:55.820Z,3.40
2018-02-22T16:05:24.101Z,3.30
2018-02-22T16:07:51.614Z,3.30
2018-02-22T16:10:19.111Z,3.30
2018-02-22T16:12:46.726Z,3.20
2018-02-22T16:15:14.988Z,3.20
2018-02-22T16:17:42.488Z,3.10
2018-02-22T16:20:10.767Z,3.00
2018-02-22T16:22:38.262Z,3.00
2018-02-22T16:25:05.893Z,3.00
2018-02-22T16:27:33.529Z,3.00
2018-02-22T16:30:01.027Z,3.00
2018-02-22T16:32:28.535Z,2.90
2018-02-22T16:34:56.815Z,2.70
2018-02-22T16:37:24.314Z,2.70
2018-02-22T16:39:51.820Z,2.70
2018-02-22T16:42:19.314Z,2.60
2018-02-22T16:44:46.832Z,2.50
2018-02-22T16:47:14.344Z,2.50
2018-02-22T16:49:41.867Z,2.40
2018-02-22T16:52:09.385Z,2.40
2018-02-22T16:54:36.880Z,2.40
2018-02-22T16:57:04.400Z,2.20
2018-02-22T16:59:31.896Z,2.20
2018-02-22T17:01:59.412Z,2.20
2018-02-22T17:04:26.985Z,2.10
2018-02-22T17:06:55.269Z,1.90
2018-02-22T17:09:23.574Z,1.80
2018-02-22T17:11:51.097Z,1.80
2018-02-22T17:14:18.601Z,1.60
2018-02-22T17:16:46.882Z,1.60
2018-02-22T17:19:15.153Z,1.50
2018-02-22T17:21:42.678Z,1.50
2018-02-22T17:24:10.185Z,1.50
2018-02-22T17:26:43.449Z,1.60
2018-02-22T17:29:16.722Z,1.70
2018-02-22T17:31:50.653Z,1.50
2018-02-22T17:34:18.927Z,1.50
2018-02-22T17:36:51.062Z,1.60
2018-02-22T17:39:24.200Z,1.60
2018-02-22T17:41:51.780Z,1.30
2018-02-22T17:44:19.261Z,1.20
2018-02-22T17:46:47.529Z,1.30
2018-02-22T17:49:15.058Z,1.30
2018-02-22T17:51:42.584Z,1.20
2018-02-22T17:54:10.110Z,1.30
2018-02-22T17:56:37.617Z,1.20
2018-02-22T17:59:05.133Z,1.10
2018-02-22T18:01:32.632Z,1.00
2018-02-22T18:04:00.916Z,1.00
2018-02-22T18:06:28.421Z,0.90
2018-02-22T18:08:55.952Z,1.00
2018-02-22T18:11:23.461Z,0.90
2018-02-22T18:13:50.985Z,0.80
2018-02-22T18:16:18.489Z,0.90
2018-02-22T18:18:46.205Z,1.00
2018-02-22T18:21:14.478Z,0.80
2018-02-22T18:23:42.007Z,0.80
2018-02-22T18:26:09.528Z,0.80
2018-02-22T18:28:37.830Z,0.90
2018-02-22T18:31:05.397Z,0.90
2018-02-22T18:33:33.661Z,0.80
2018-02-22T18:36:01.197Z,0.80
2018-02-22T18:38:28.719Z,0.70
2018-02-22T18:40:59.785Z,0.60
2018-02-22T18:43:33.072Z,0.60
2018-02-22T18:46:00.604Z,0.60
2018-02-22T18:48:28.122Z,0.50
2018-02-22T18:50:56.413Z,0.60
2018-02-22T18:53:24.708Z,0.30
2018-02-22T18:55:53.285Z,0.30
2018-02-22T18:58:20.809Z,0.30
2018-02-22T19:00:48.324Z,0.50
2018-02-22T19:03:15.827Z,0.40
2018-02-22T19:05:43.345Z,0.50
2018-02-22T19:08:10.884Z,0.50
2018-02-22T19:10:38.421Z,0.50
2018-02-22T19:13:06.689Z,0.40
2018-02-22T19:15:34.209Z,0.30
2018-02-22T19:18:01.728Z,0.30
2018-02-22T19:20:30.026Z,0.10
2018-02-22T19:22:57.561Z,0.00
2018-02-22T19:25:25.102Z,0.00
2018-02-22T19:27:52.673Z,0.00
2018-02-22T19:30:20.966Z,0.00
2018-02-22T19:32:49.240Z,0.00
2018-02-22T19:35:16.832Z,0.00
2018-02-22T19:37:44.353Z,-0.10
2018-02-22T19:40:11.868Z,0.10
2018-02-22T19:42:39.381Z,0.00
2018-02-22T19:45:06.901Z,0.10
2018-02-22T19:47:35.169Z,0.10
2018-02-22T19:50:03.465Z,0.30
2018-02-22T19:52:30.970Z,0.30
2018-02-22T19:54:58.492Z,0.20
2018-02-22T19:57:25.993Z,0.00
2018-02-22T19:59:54.277Z,0.00
2018-02-22T20:02:22.550Z,0.00
2018-02-22T20:04:50.067Z,0.00
2018-02-22T20:07:17.661Z,-0.30
2018-02-22T20:09:45.201Z,-0.30
2018-02-22T20:12:12.726Z,-0.40
2018-02-22T20:14:40.249Z,-0.50
2018-02-22T20:17:07.808Z,-0.50
2018-02-22T20:19:36.121Z,-0.40
2018-02-22T20:22:03.625Z,-0.40
2018-02-22T20:24:31.128Z,-0.50
2018-02-22T20:26:59.417Z,-0.60
2018-02-22T20:29:27.686Z,-0.70
2018-02-22T20:31:55.204Z,-0.70
2018-02-22T20:34:22.722Z,-0.60
2018-02-22T20:36:50.331Z,-0.50
2018-02-22T20:39:18.606Z,-0.70
2018-02-22T20:41:46.893Z,-0.70
2018-02-22T20:44:14.392Z,-0.70
2018-02-22T20:46:41.919Z,-0.70
2018-02-22T20:49:09.996Z,-0.50
2018-02-22T20:51:39.339Z,-0.60
2018-02-22T20:54:07.622Z,-0.60
2018-02-22T20:56:35.912Z,-0.60
2018-02-22T20:59:03.524Z,-0.60
2018-02-22T21:01:31.050Z,-0.70
2018-02-22T21:03:58.557Z,-0.60
2018-02-22T21:06:26.098Z,-0.60
2018-02-22T21:08:53.622Z,-0.80
2018-02-22T21:11:21.196Z,-0.90
2018-02-22T21:13:49.543Z,-0.80
2018-02-22T21:16:17.817Z,-0.60
2018-02-22T21:18:45.409Z,-0.60
2018-02-22T21:21:13.676Z,-0.70
2018-02-22T21:23:41.278Z,-0.70
2018-02-22T21:26:09.665Z,-0.70
2018-02-22T21:28:37.941Z,-0.70
2018-02-22T21:31:06.210Z,-0.80
2018-02-22T21:33:33.734Z,-0.80
2018-02-22T21:36:01.237Z,-1.00
2018-02-22T21:38:28.765Z,-0.90
2018-02-22T21:40:56.268Z,-0.90
2018-02-22T21:43:23.784Z,-0.90
2018-02-22T21:45:52.056Z,-0.90
2018-02-22T21:48:19.589Z,-0.90
2018-02-22T21:50:47.085Z,-0.90
2018-02-22T21:53:14.584Z,-0.90
2018-02-22T21:55:42.108Z,-0.90
2018-02-22T21:58:09.641Z,-1.00
2018-02-22T22:00:37.924Z,-0.90
2018-02-22T22:03:06.192Z,-0.90
2018-02-22T22:05:33.713Z,-0.90
2018-02-22T22:08:01.212Z,-0.90
2018-02-22T22:10:28.760Z,-0.80
2018-02-22T22:12:56.300Z,-0.80
2018-02-22T22:15:24.697Z,-1.00
2018-02-22T22:17:52.968Z,-1.00
2018-02-22T22:20:20.490Z,-1.00
2018-02-22T22:22:47.995Z,-1.20
2018-02-22T22:25:15.527Z,-1.20
2018-02-22T22:27:43.042Z,-1.10
2018-02-22T22:30:10.548Z,-1.20
2018-02-22T22:32:38.070Z,-1.20
2018-02-22T22:35:05.585Z,-1.10
2018-02-22T22:37:33.867Z,-1.30
2018-02-22T22:40:02.162Z,-1.30
2018-02-22T22:42:30.450Z,-1.40
2018-02-22T22:44:58.730Z,-1.20
2018-02-22T22:47:27.025Z,-1.10
2018-02-22T22:49:55.285Z,-1.10
2018-02-22T22:52:22.889Z,-1.00
2018-02-22T22:54:51.154Z,-1.20
2018-02-22T22:57:18.757Z,-1.20
2018-02-22T22:59:46.317Z,-1.20
2018-02-22T23:02:14.613Z,-1.10
2018-02-22T23:04:42.880Z,-1.30
2018-02-22T23:07:11.889Z,-1.30
2018-02-22T23:09:39.405Z,-1.30
2018-02-22T23:12:06.919Z,-1.50
2018-02-22T23:14:34.525Z,-1.60
2018-02-22T23:17:02.837Z,-1.80
2018-02-22T23:19:30.360Z,-1.80
2018-02-22T23:21:57.859Z,-1.90
2018-02-22T23:24:26.299Z,-1.60
2018-02-22T23:26:53.768Z,-1.60
2018-02-22T23:29:21.293Z,-1.70
2018-02-22T23:31:49.582Z,-1.70
2018-02-22T23:34:17.101Z,-1.70
2018-02-22T23:36:44.618Z,-1.70
2018-02-22T23:39:12.915Z,-1.70
2018-02-22T23:44:42.065Z,-1.70
2018-02-22T23:47:09.564Z,-1.60
2018-02-22T23:49:37.085Z,-1.60
2018-02-22T23:52:05.361Z,-1.70
2018-02-22T23:54:32.870Z,-1.70
2018-02-22T23:57:00.425Z,-1.80
2018-02-22T23:59:28.692Z,-2.00
